Moon Tide — WDH3532 — position and weather

sailwx.info

Track history (hours):
 
Tides and Currents Weather Stations Pressure Air Temp Water Temp Dewpoint Dewpoint Depression Visibility Wind Speed Wind Dir Waves Ship Positions

Moon Tide

Owner: Nelson, Carl, Cambridge, MA. More information available from US FCC via Universal Licensing System and Coast Guard Vessel Documentation Center.

Last reported at 2018-Jun-18 19:51 UTC. Time now 2018-Jun-19 10:32 UTC.
Position N 41°15' W 072°18'.

Length 19 m.

Type: Sailing vessel. MMSI: 367608290.

Date/timePositionNaut miles runAvg speedWind from/ knotsBaromVisibWave heightAir tempDewpointWater temp
2018-Jun-18 19:51N 41°15' W 072°18'3 8.7
2018-Jun-18 19:30N 41°14' W 072°22'5 9.0
2018-Jun-18 18:59N 41°14' W 072°28'4 8.0
2018-Jun-18 18:30N 41°13' W 072°33'4 6.8
2018-Jun-18 17:58N 41°13' W 072°38'67 3.5
2018-Jun-17 22:47N 40°45' W 073°58'2 6.9
2018-Jun-17 22:30N 40°43' W 073°58'3 5.3
2018-Jun-17 22:00N 40°42' W 074°01'2 4.8
2018-Jun-17 21:30N 40°39' W 074°02'50 7.5
2018-Jun-17 14:55N 39°50' W 074°02'4 8.4
2018-Jun-17 14:26N 39°46' W 074°05'2 2.8
2018-Jun-17 13:46N 39°46' W 074°07'0 0.1
2018-Jun-17 13:28N 39°46' W 074°07'0 0.0
2018-Jun-17 12:28N 39°46' W 074°07'0 0.0
2018-Jun-17 11:46N 39°46' W 074°07'0 0.0
2018-Jun-17 11:28N 39°46' W 074°07'0 0.0
2018-Jun-17 10:58N 39°46' W 074°07'0 0.0
2018-Jun-17 10:10N 39°46' W 074°07'0 0.0
2018-Jun-17 09:52N 39°46' W 074°07'0 0.0
2018-Jun-17 09:28N 39°46' W 074°07'0 0.0
2018-Jun-17 08:58N 39°46' W 074°07'0 0.0
2018-Jun-17 08:22N 39°46' W 074°07'0 0.0
2018-Jun-17 07:58N 39°46' W 074°07'0 0.0
2018-Jun-17 07:16N 39°46' W 074°07'0 0.0
2018-Jun-17 06:52N 39°46' W 074°07'0 0.0
2018-Jun-17 06:16N 39°46' W 074°07'0 0.0
2018-Jun-17 05:58N 39°46' W 074°07'0 0.0
2018-Jun-17 04:40N 39°46' W 074°07'0 0.0
2018-Jun-17 04:28N 39°46' W 074°07'0 0.0
2018-Jun-17 03:52N 39°46' W 074°07'0 0.0
2018-Jun-17 03:16N 39°46' W 074°07'0 0.0
2018-Jun-17 02:58N 39°46' W 074°07'0 0.0
2018-Jun-17 02:25N 39°46' W 074°07'0 0.0
2018-Jun-17 00:40N 39°46' W 074°07'0 0.0
2018-Jun-17 00:22N 39°46' W 074°07'0 0.0
2018-Jun-16 23:52N 39°46' W 074°07'0 0.0
2018-Jun-16 23:16N 39°46' W 074°07'0 0.0
2018-Jun-16 22:46N 39°46' W 074°07'0 0.0
2018-Jun-16 22:28N 39°46' W 074°07'0 0.0
2018-Jun-16 21:58N 39°46' W 074°07'0 0.0
2018-Jun-16 21:22N 39°46' W 074°07'0 0.0
2018-Jun-16 20:52N 39°46' W 074°07'1 3.0
2018-Jun-16 20:29N 39°46' W 074°06'4 7.6
2018-Jun-16 20:00N 39°42' W 074°05'4 7.9
2018-Jun-16 19:29N 39°39' W 074°08'5 9.0
2018-Jun-16 18:56N 39°34' W 074°11'193 7.7
2018-Jun-15 18:05N 36°49' W 076°17'1 8.8
2018-Jun-15 18:00N 36°49' W 076°17'3 6.8
2018-Jun-15 17:30N 36°45' W 076°18'116 2.4
2018-Jun-13 17:03N 34°51' W 076°41'0 6.0
2018-Jun-13 16:59N 34°51' W 076°41'3 6.3
2018-Jun-13 16:30N 34°48' W 076°41'3 6.7
2018-Jun-13 16:00N 34°44' W 076°41'3 6.7
2018-Jun-13 15:30N 34°43' W 076°45'  
2018-Jun-11 10:52N 32°46' W 079°55'1 3.1
2018-Jun-11 10:28N 32°46' W 079°56'0 0.0
2018-Jun-11 09:58N 32°46' W 079°56'0 0.0
2018-Jun-11 09:28N 32°46' W 079°56'0 0.0
2018-Jun-11 08:58N 32°46' W 079°56'0 0.0
2018-Jun-11 08:28N 32°46' W 079°56'0 0.0
2018-Jun-11 07:58N 32°46' W 079°56'0 0.0
2018-Jun-11 07:28N 32°46' W 079°56'0 0.0
2018-Jun-11 06:58N 32°46' W 079°56'0 0.0
2018-Jun-11 06:28N 32°46' W 079°56'0 0.0
2018-Jun-11 05:58N 32°46' W 079°56'0 0.0
2018-Jun-11 05:28N 32°46' W 079°56'0 0.0
2018-Jun-11 04:58N 32°46' W 079°56'0 0.0
2018-Jun-11 04:28N 32°46' W 079°56'0 0.0
2018-Jun-11 03:58N 32°46' W 079°56'0 0.0
2018-Jun-11 03:28N 32°46' W 079°56'0 0.0
2018-Jun-11 02:58N 32°46' W 079°56'0 0.0
2018-Jun-11 02:28N 32°46' W 079°56'0 0.0
2018-Jun-11 01:58N 32°46' W 079°56'0 0.0
2018-Jun-11 01:28N 32°46' W 079°56'0 0.0
2018-Jun-11 00:58N 32°46' W 079°56'0 0.0
2018-Jun-11 00:28N 32°46' W 079°56'0 0.0
2018-Jun-10 23:58N 32°46' W 079°56'0 0.0
2018-Jun-10 23:28N 32°46' W 079°56'1 1.2
2018-Jun-10 23:00N 32°46' W 079°56'346 9.7
2018-Jun-09 11:29N 26°60' W 079°58'511.1
2018-Jun-09 11:00N 26°55' W 079°59'  
Track history (hours):
 
Tides and Currents Weather Stations Pressure Air Temp Water Temp Dewpoint Dewpoint Depression Visibility Wind Speed Wind Dir Waves Ship Positions

Moon Tide

Owner: Nelson, Carl, Cambridge, MA. More information available from US FCC via Universal Licensing System and Coast Guard Vessel Documentation Center.

Last reported at 2018-Jun-18 19:51 UTC. Time now 2018-Jun-19 10:32 UTC.
Position N 41°15' W 072°18'.

Length 19 m.

Type: Sailing vessel. MMSI: 367608290.

Date/timePositionNaut miles runAvg speedWind from/ knotsBaromVisibWave heightAir tempDewpointWater temp
2018-Jun-18 19:51N 41°15' W 072°18'3 8.7
2018-Jun-18 19:30N 41°14' W 072°22'5 9.0
2018-Jun-18 18:59N 41°14' W 072°28'4 8.0
2018-Jun-18 18:30N 41°13' W 072°33'4 6.8
2018-Jun-18 17:58N 41°13' W 072°38'67 3.5
2018-Jun-17 22:47N 40°45' W 073°58'2 6.9
2018-Jun-17 22:30N 40°43' W 073°58'3 5.3
2018-Jun-17 22:00N 40°42' W 074°01'2 4.8
2018-Jun-17 21:30N 40°39' W 074°02'50 7.5
2018-Jun-17 14:55N 39°50' W 074°02'4 8.4
2018-Jun-17 14:26N 39°46' W 074°05'2 2.8
2018-Jun-17 13:46N 39°46' W 074°07'0 0.1
2018-Jun-17 13:28N 39°46' W 074°07'0 0.0
2018-Jun-17 12:28N 39°46' W 074°07'0 0.0
2018-Jun-17 11:46N 39°46' W 074°07'0 0.0
2018-Jun-17 11:28N 39°46' W 074°07'0 0.0
2018-Jun-17 10:58N 39°46' W 074°07'0 0.0
2018-Jun-17 10:10N 39°46' W 074°07'0 0.0
2018-Jun-17 09:52N 39°46' W 074°07'0 0.0
2018-Jun-17 09:28N 39°46' W 074°07'0 0.0
2018-Jun-17 08:58N 39°46' W 074°07'0 0.0
2018-Jun-17 08:22N 39°46' W 074°07'0 0.0
2018-Jun-17 07:58N 39°46' W 074°07'0 0.0
2018-Jun-17 07:16N 39°46' W 074°07'0 0.0
2018-Jun-17 06:52N 39°46' W 074°07'0 0.0
2018-Jun-17 06:16N 39°46' W 074°07'0 0.0
2018-Jun-17 05:58N 39°46' W 074°07'0 0.0
2018-Jun-17 04:40N 39°46' W 074°07'0 0.0
2018-Jun-17 04:28N 39°46' W 074°07'0 0.0
2018-Jun-17 03:52N 39°46' W 074°07'0 0.0
2018-Jun-17 03:16N 39°46' W 074°07'0 0.0
2018-Jun-17 02:58N 39°46' W 074°07'0 0.0
2018-Jun-17 02:25N 39°46' W 074°07'0 0.0
2018-Jun-17 00:40N 39°46' W 074°07'0 0.0
2018-Jun-17 00:22N 39°46' W 074°07'0 0.0
2018-Jun-16 23:52N 39°46' W 074°07'0 0.0
2018-Jun-16 23:16N 39°46' W 074°07'0 0.0
2018-Jun-16 22:46N 39°46' W 074°07'0 0.0
2018-Jun-16 22:28N 39°46' W 074°07'0 0.0
2018-Jun-16 21:58N 39°46' W 074°07'0 0.0
2018-Jun-16 21:22N 39°46' W 074°07'0 0.0
2018-Jun-16 20:52N 39°46' W 074°07'1 3.0
2018-Jun-16 20:29N 39°46' W 074°06'4 7.6
2018-Jun-16 20:00N 39°42' W 074°05'4 7.9
2018-Jun-16 19:29N 39°39' W 074°08'5 9.0
2018-Jun-16 18:56N 39°34' W 074°11'193 7.7
2018-Jun-15 18:05N 36°49' W 076°17'1 8.8
2018-Jun-15 18:00N 36°49' W 076°17'3 6.8
2018-Jun-15 17:30N 36°45' W 076°18'116 2.4
2018-Jun-13 17:03N 34°51' W 076°41'0 6.0
2018-Jun-13 16:59N 34°51' W 076°41'3 6.3
2018-Jun-13 16:30N 34°48' W 076°41'3 6.7
2018-Jun-13 16:00N 34°44' W 076°41'3 6.7
2018-Jun-13 15:30N 34°43' W 076°45'  
2018-Jun-11 10:52N 32°46' W 079°55'1 3.1
2018-Jun-11 10:28N 32°46' W 079°56'0 0.0
2018-Jun-11 09:58N 32°46' W 079°56'0 0.0
2018-Jun-11 09:28N 32°46' W 079°56'0 0.0
2018-Jun-11 08:58N 32°46' W 079°56'0 0.0
2018-Jun-11 08:28N 32°46' W 079°56'0 0.0
2018-Jun-11 07:58N 32°46' W 079°56'0 0.0
2018-Jun-11 07:28N 32°46' W 079°56'0 0.0
2018-Jun-11 06:58N 32°46' W 079°56'0 0.0
2018-Jun-11 06:28N 32°46' W 079°56'0 0.0
2018-Jun-11 05:58N 32°46' W 079°56'0 0.0
2018-Jun-11 05:28N 32°46' W 079°56'0 0.0
2018-Jun-11 04:58N 32°46' W 079°56'0 0.0
2018-Jun-11 04:28N 32°46' W 079°56'0 0.0
2018-Jun-11 03:58N 32°46' W 079°56'0 0.0
2018-Jun-11 03:28N 32°46' W 079°56'0 0.0
2018-Jun-11 02:58N 32°46' W 079°56'0 0.0
2018-Jun-11 02:28N 32°46' W 079°56'0 0.0
2018-Jun-11 01:58N 32°46' W 079°56'0 0.0
2018-Jun-11 01:28N 32°46' W 079°56'0 0.0
2018-Jun-11 00:58N 32°46' W 079°56'0 0.0
2018-Jun-11 00:28N 32°46' W 079°56'0 0.0
2018-Jun-10 23:58N 32°46' W 079°56'0 0.0
2018-Jun-10 23:28N 32°46' W 079°56'1 1.2
2018-Jun-10 23:00N 32°46' W 079°56'346 9.7
2018-Jun-09 11:29N 26°60' W 079°58'511.1
2018-Jun-09 11:00N 26°55' W 079°59'  

Dump ship's entire track history